Time;durP1;ratioP1;P1;durP2;ratioP2;P2;SDS_P1;SDS_P2;PMS_P1;PMS_P2;Temp;Humidity;BMP_temperature;BMP_pressure;BME280_temperature;BME280_humidity;BME280_pressure;Samples;Min_cycle;Max_cycle;Signal;HPM_P1;HPM_P2
2021/06/13 00:00:30;;;;;;;7.75;3.90;;;;;;;16.65;30.77;101729.66;5018019;27;97900;-69
2021/06/13 00:02:58;;;;;;;5.85;3.72;;;;;;;16.64;30.87;101731.44;5018009;27;97799;-71
2021/06/13 00:05:25;;;;;;;6.32;3.58;;;;;;;16.64;30.70;101727.84;5017787;27;96828;-70
2021/06/13 00:07:53;;;;;;;9.55;4.10;;;;;;;16.60;30.86;101736.75;5018703;27;97465;-70
2021/06/13 00:10:20;;;;;;;6.65;3.58;;;;;;;16.60;30.84;101739.44;5018416;27;99697;-69
2021/06/13 00:12:49;;;;;;;7.85;3.53;;;;;;;16.61;30.86;101747.53;5007932;27;98204;-70
2021/06/13 00:15:19;;;;;;;7.38;3.88;;;;;;;16.62;30.69;101740.34;5016663;27;97500;-70
2021/06/13 00:17:46;;;;;;;6.03;3.70;;;;;;;16.62;30.59;101745.72;4997584;28;98204;-69
2021/06/13 00:20:17;;;;;;;6.97;3.60;;;;;;;16.58;30.38;101747.47;5016673;27;99962;-70
2021/06/13 00:22:44;;;;;;;6.65;3.40;;;;;;;16.55;30.58;101749.22;5017076;27;97012;-70
2021/06/13 00:25:12;;;;;;;7.03;3.80;;;;;;;16.54;30.50;101758.19;5017085;27;97498;-70
2021/06/13 00:27:40;;;;;;;6.05;3.65;;;;;;;16.54;30.81;101752.81;5018421;27;97907;-69
2021/06/13 00:30:13;;;;;;;8.20;4.50;;;;;;;16.57;30.39;101760.91;5016981;27;99500;-70
2021/06/13 00:32:41;;;;;;;8.60;3.97;;;;;;;16.55;30.78;101765.34;5034168;27;99551;-70
2021/06/13 00:35:09;;;;;;;9.40;3.90;;;;;;;16.52;30.88;101765.31;5016315;27;98062;-70
2021/06/13 00:37:36;;;;;;;8.05;3.80;;;;;;;16.53;30.58;101759.06;5017310;27;97565;-69
2021/06/13 00:40:05;;;;;;;9.95;4.07;;;;;;;16.52;31.03;101763.56;5016279;27;100563;-69
2021/06/13 00:42:34;;;;;;;9.13;4.40;;;;;;;16.56;31.02;101767.19;5017029;27;101352;-70
2021/06/13 00:45:03;;;;;;;6.72;4.38;;;;;;;16.56;30.60;101761.81;5018423;27;97154;-70
2021/06/13 00:47:31;;;;;;;7.55;3.72;;;;;;;16.51;30.58;101763.50;5016892;27;96859;-70
2021/06/13 00:49:59;;;;;;;7.93;3.40;;;;;;;16.47;30.78;101761.69;5015918;27;101439;-70
2021/06/13 00:52:27;;;;;;;9.52;4.28;;;;;;;16.44;30.85;101759.84;5019660;27;100379;-69
2021/06/13 00:54:58;;;;;;;6.80;3.90;;;;;;;16.37;30.97;101765.13;5020327;27;97460;-69
2021/06/13 00:57:25;;;;;;;7.22;3.75;;;;;;;16.32;30.76;101764.16;5017966;27;98039;-69
2021/06/13 00:59:53;;;;;;;6.97;3.90;;;;;;;16.30;30.64;101765.94;5013683;27;97995;-69
2021/06/13 01:02:21;;;;;;;5.88;3.28;;;;;;;16.23;30.93;101773.03;5003686;27;98713;-69
2021/06/13 01:04:51;;;;;;;9.05;4.10;;;;;;;16.24;30.51;101768.53;4999745;27;97520;-68
2021/06/13 01:07:23;;;;;;;7.57;4.13;;;;;;;16.20;30.66;101780.09;5022923;27;96907;-68
2021/06/13 01:09:54;;;;;;;7.13;3.78;;;;;;;16.18;30.81;101774.72;5021362;27;97884;-69
2021/06/13 01:12:25;;;;;;;7.45;4.10;;;;;;;16.14;30.89;101777.34;5021248;27;98047;-69
2021/06/13 01:15:01;;;;;;;5.55;3.60;;;;;;;16.08;30.98;101784.44;4993246;27;97280;-69
2021/06/13 01:17:32;;;;;;;7.63;3.60;;;;;;;16.03;30.97;101778.09;5019369;27;97587;-69
2021/06/13 01:20:13;;;;;;;8.00;3.80;;;;;;;16.03;31.53;101780.78;5020479;27;97437;-69
2021/06/13 01:23:01;;;;;;;6.65;3.58;;;;;;;16.02;31.67;101786.13;5018494;27;97544;-70
2021/06/13 01:25:36;;;;;;;7.43;3.90;;;;;;;15.99;31.68;101784.28;4993206;27;97055;-71
2021/06/13 01:28:50;;;;;;;6.95;3.90;;;;;;;15.90;32.14;101786.78;5019771;27;98778;-70
2021/06/13 01:31:19;;;;;;;7.43;3.85;;;;;;;15.88;32.42;101785.91;5008001;27;100030;-69
2021/06/13 01:33:47;;;;;;;7.55;3.97;;;;;;;15.80;32.65;101786.63;5019381;27;99819;-70
2021/06/13 01:36:16;;;;;;;8.32;3.90;;;;;;;15.72;32.97;101777.59;5020171;27;97890;-70
2021/06/13 01:38:45;;;;;;;12.57;4.70;;;;;;;15.66;33.06;101774.78;5003655;28;97682;-70
2021/06/13 01:41:17;;;;;;;6.40;3.90;;;;;;;15.62;33.32;101783.66;5017018;27;99130;-69
2021/06/13 01:43:45;;;;;;;8.07;4.03;;;;;;;15.58;33.53;101785.41;5002187;28;100601;-71
2021/06/13 01:46:14;;;;;;;10.40;4.07;;;;;;;15.57;33.28;101788.97;5021240;27;97616;-70
2021/06/13 01:48:42;;;;;;;5.17;3.53;;;;;;;15.53;33.68;101786.19;5018215;27;97957;-70
2021/06/13 01:51:10;;;;;;;11.63;4.22;;;;;;;15.43;33.35;101793.19;5019951;27;98922;-69
2021/06/13 01:53:42;;;;;;;7.03;3.72;;;;;;;15.38;33.66;101792.19;5021090;27;98194;-70
2021/06/13 01:56:15;;;;;;;7.40;4.22;;;;;;;15.30;33.97;101793.88;5017688;27;98455;-70
2021/06/13 01:58:44;;;;;;;9.73;4.15;;;;;;;15.32;33.92;101805.50;5019516;27;97343;-70
2021/06/13 02:01:34;;;;;;;7.80;3.95;;;;;;;15.32;33.89;101804.63;5013298;27;98018;-70
2021/06/13 02:04:05;;;;;;;7.65;4.60;;;;;;;15.28;33.72;101814.34;5003402;27;98380;-69
2021/06/13 02:06:47;;;;;;;8.63;4.40;;;;;;;15.17;33.97;101814.13;5015551;27;97573;-70
2021/06/13 02:09:19;;;;;;;8.90;4.30;;;;;;;15.14;33.81;101818.53;5018536;27;97546;-70
2021/06/13 02:11:50;;;;;;;9.07;4.50;;;;;;;15.08;34.04;101810.41;5002926;28;101721;-69
2021/06/13 02:14:19;;;;;;;8.55;4.50;;;;;;;15.05;33.92;101813.91;5002534;28;97730;-70
2021/06/13 02:16:57;;;;;;;9.10;4.50;;;;;;;15.00;33.60;101807.56;5000546;28;97114;-70
2021/06/13 02:19:26;;;;;;;7.88;3.97;;;;;;;14.98;33.83;101811.06;5020025;27;97767;-70
2021/06/13 02:22:04;;;;;;;10.97;4.70;;;;;;;14.93;33.94;101821.72;5002429;27;100836;-70
2021/06/13 02:24:36;;;;;;;7.68;4.20;;;;;;;14.89;34.01;101817.16;5001773;27;97589;-70
2021/06/13 02:27:06;;;;;;;8.07;4.37;;;;;;;14.85;33.92;101814.38;5002169;27;97685;-70
2021/06/13 02:29:41;;;;;;;7.90;4.95;;;;;;;14.86;33.96;101813.53;5002471;27;97727;-70
2021/06/13 02:32:13;;;;;;;8.93;4.70;;;;;;;14.89;34.12;101822.53;5018534;27;98036;-71
2021/06/13 02:34:44;;;;;;;7.75;4.55;;;;;;;14.85;34.24;101826.03;4999142;28;99408;-70
2021/06/13 02:37:13;;;;;;;8.90;4.43;;;;;;;14.82;34.00;101825.06;5002361;28;97420;-70
2021/06/13 02:39:41;;;;;;;8.88;4.28;;;;;;;14.77;34.30;101830.31;5002150;28;97127;-70
2021/06/13 02:42:22;;;;;;;9.52;4.55;;;;;;;14.70;34.32;101836.41;5018863;27;100626;-71
2021/06/13 02:44:51;;;;;;;9.90;4.88;;;;;;;14.59;34.41;101837.97;5018073;27;100104;-70
2021/06/13 02:47:20;;;;;;;12.30;4.60;;;;;;;14.53;34.66;101839.59;5014538;27;97533;-70
2021/06/13 02:49:47;;;;;;;8.35;4.68;;;;;;;14.46;34.79;101845.69;5020433;27;97212;-69
2021/06/13 02:52:22;;;;;;;10.13;4.72;;;;;;;14.35;35.17;101840.09;5018586;27;100690;-70
2021/06/13 02:54:50;;;;;;;10.25;5.38;;;;;;;14.30;35.16;101840.84;5000903;27;97832;-70
2021/06/13 02:57:24;;;;;;;12.45;4.70;;;;;;;14.02;35.63;101842.88;5018389;27;98295;-70
2021/06/13 02:59:56;;;;;;;9.80;4.82;;;;;;;13.88;35.25;101843.41;5018530;27;97486;-70
2021/06/13 03:02:28;;;;;;;11.65;5.15;;;;;;;13.75;35.56;101847.50;5019693;27;98714;-70
2021/06/13 03:05:01;;;;;;;9.65;5.03;;;;;;;13.65;35.55;101855.28;5003304;28;99339;-70
2021/06/13 03:07:30;;;;;;;7.53;4.30;;;;;;;13.62;35.51;101861.44;5017404;27;97655;-68
2021/06/13 03:10:03;;;;;;;12.38;4.30;;;;;;;13.58;35.44;101858.66;5019805;27;97401;-69
2021/06/13 03:12:31;;;;;;;9.88;3.50;;;;;;;13.56;35.56;101860.38;5016401;27;97337;-68
2021/06/13 03:15:00;;;;;;;7.72;4.03;;;;;;;13.55;35.35;101866.63;5019651;27;99089;-68
2021/06/13 03:17:34;;;;;;;8.23;4.07;;;;;;;13.54;35.45;101871.06;5019305;27;98035;-68
2021/06/13 03:20:02;;;;;;;7.47;4.55;;;;;;;13.54;35.31;101867.47;5002656;28;96790;-68
2021/06/13 03:22:33;;;;;;;6.53;4.28;;;;;;;13.59;35.29;101865.81;5002137;28;99686;-68
2021/06/13 03:25:02;;;;;;;9.52;4.13;;;;;;;13.56;35.22;101865.75;5001320;28;100721;-69
2021/06/13 03:27:32;;;;;;;8.13;3.75;;;;;;;13.60;35.23;101875.66;5002867;27;97593;-69
2021/06/13 03:30:02;;;;;;;8.48;4.45;;;;;;;13.62;35.16;101874.81;5002670;27;97349;-69
2021/06/13 03:32:36;;;;;;;9.82;4.38;;;;;;;13.60;35.26;101883.69;5002093;27;98676;-69
2021/06/13 03:35:05;;;;;;;7.88;4.32;;;;;;;13.64;35.17;101881.09;5018087;27;99383;-68
2021/06/13 03:37:33;;;;;;;7.75;4.38;;;;;;;13.66;35.11;101886.53;5019244;27;97502;-69
2021/06/13 03:40:01;;;;;;;9.00;4.35;;;;;;;13.71;35.00;101883.09;5003389;27;97460;-69
2021/06/13 03:42:31;;;;;;;7.45;3.78;;;;;;;13.66;35.25;101884.72;5002516;27;99800;-68
2021/06/13 03:44:59;;;;;;;7.47;4.65;;;;;;;13.70;35.10;101880.38;5017739;27;100742;-68
2021/06/13 03:47:28;;;;;;;10.00;4.18;;;;;;;13.67;35.26;101891.00;5020526;27;97475;-68
2021/06/13 03:49:57;;;;;;;9.00;4.32;;;;;;;13.71;35.19;101891.13;5020156;27;97244;-69
2021/06/13 03:52:26;;;;;;;10.00;4.65;;;;;;;13.76;35.15;101902.84;5018319;27;99325;-69
2021/06/13 03:54:55;;;;;;;7.00;4.15;;;;;;;13.80;35.12;101890.50;5018955;27;99606;-69
2021/06/13 03:57:24;;;;;;;7.65;4.53;;;;;;;13.83;35.13;101895.91;5002865;27;97355;-69
2021/06/13 03:59:53;;;;;;;7.72;3.97;;;;;;;13.84;34.95;101905.75;5018420;27;98197;-69
2021/06/13 04:02:21;;;;;;;6.20;4.28;;;;;;;13.81;35.14;101906.56;4983685;27;99540;-69
2021/06/13 04:04:52;;;;;;;6.40;4.60;;;;;;;13.76;35.23;101912.63;5015924;27;97061;-69
2021/06/13 04:07:22;;;;;;;7.35;4.05;;;;;;;13.81;35.15;101908.34;5017474;27;97099;-69
2021/06/13 04:09:50;;;;;;;5.85;4.50;;;;;;;13.82;35.04;101916.41;5016646;27;97160;-69
2021/06/13 04:12:20;;;;;;;5.97;4.43;;;;;;;13.87;34.93;101924.56;5019560;27;98373;-70
2021/06/13 04:14:49;;;;;;;7.03;3.97;;;;;;;13.94;34.97;101918.50;5020535;27;99019;-69
2021/06/13 04:17:20;;;;;;;9.63;4.30;;;;;;;13.92;34.99;101918.47;5003175;28;97613;-68
2021/06/13 04:19:48;;;;;;;6.13;4.13;;;;;;;13.83;34.87;101925.34;5019649;27;97025;-68
2021/06/13 04:22:18;;;;;;;9.35;4.68;;;;;;;13.81;35.05;101922.63;5019222;27;99949;-69
2021/06/13 04:24:48;;;;;;;5.93;4.15;;;;;;;13.77;35.08;101923.38;5018562;27;99074;-69
2021/06/13 04:27:19;;;;;;;11.30;4.60;;;;;;;13.76;35.29;101920.66;5019463;27;96797;-69
2021/06/13 04:29:48;;;;;;;11.05;4.60;;;;;;;13.80;35.09;101920.84;5018328;27;97128;-68
2021/06/13 04:32:16;;;;;;;9.63;4.78;;;;;;;13.82;35.16;101923.53;5014257;27;98451;-69
2021/06/13 04:34:44;;;;;;;24.80;9.90;;;;;;;13.83;34.99;101926.25;5016628;27;99389;-69
2021/06/13 04:37:12;;;;;;;11.45;5.85;;;;;;;13.81;35.18;101927.97;5014778;27;98046;-70
2021/06/13 04:39:40;;;;;;;6.80;4.32;;;;;;;13.84;35.12;101927.16;5016597;27;98617;-70
2021/06/13 04:42:11;;;;;;;6.82;4.75;;;;;;;13.86;35.04;101925.44;5016739;27;100583;-69
2021/06/13 04:44:39;;;;;;;8.18;4.18;;;;;;;13.85;35.05;101918.25;5004853;27;99969;-70
2021/06/13 04:47:07;;;;;;;11.73;4.57;;;;;;;13.85;35.20;101919.16;4987058;28;97124;-70
2021/06/13 04:49:51;;;;;;;8.30;3.85;;;;;;;13.90;35.00;101929.97;5001016;27;97981;-71
2021/06/13 04:52:21;;;;;;;7.03;3.78;;;;;;;13.91;34.97;101932.72;5015896;27;99556;-70
2021/06/13 04:55:14;;;;;;;7.28;3.92;;;;;;;13.96;35.20;101932.81;5019667;27;98701;-71
2021/06/13 04:58:03;;;;;;;9.05;4.38;;;;;;;13.91;35.22;101929.13;5015056;27;97088;-70
2021/06/13 05:00:31;;;;;;;7.75;3.90;;;;;;;13.97;34.96;101945.31;5013921;27;98155;-70
2021/06/13 05:02:59;;;;;;;73.07;34.53;;;;;;;13.98;34.82;101953.41;4989619;27;99899;-71
2021/06/13 05:05:27;;;;;;;20.73;11.38;;;;;;;14.02;34.82;101960.63;5012101;27;97542;-69
2021/06/13 05:07:55;;;;;;;7.68;4.43;;;;;;;14.02;34.89;101949.94;5017487;27;97952;-69
2021/06/13 05:10:24;;;;;;;10.35;4.20;;;;;;;14.05;34.85;101950.03;5018677;27;98260;-70
2021/06/13 05:12:54;;;;;;;7.18;3.92;;;;;;;14.04;34.83;101956.22;5019646;27;97683;-70
2021/06/13 05:15:23;;;;;;;9.60;3.63;;;;;;;14.03;35.02;101957.09;5016356;27;99794;-70
2021/06/13 05:17:52;;;;;;;6.43;4.35;;;;;;;14.05;34.94;101960.72;5018027;27;97837;-69
2021/06/13 05:20:20;;;;;;;6.30;3.80;;;;;;;14.06;34.93;101965.19;5017215;27;97708;-70
2021/06/13 05:22:57;;;;;;;6.90;5.13;;;;;;;14.02;35.13;101962.44;5019690;27;97684;-69
2021/06/13 05:25:27;;;;;;;6.75;3.45;;;;;;;14.01;35.02;101963.28;5016086;27;99698;-70
2021/06/13 05:27:57;;;;;;;6.00;4.10;;;;;;;14.02;34.81;101960.63;4999111;28;97667;-70
2021/06/13 05:30:27;;;;;;;9.85;4.15;;;;;;;14.08;34.86;101968.81;5018643;27;96882;-70
2021/06/13 05:32:55;;;;;;;7.55;4.40;;;;;;;14.07;34.91;101972.38;5019404;27;97819;-70
2021/06/13 05:35:24;;;;;;;7.18;4.63;;;;;;;14.11;34.83;101985.00;5016836;27;99205;-71
2021/06/13 05:37:52;;;;;;;11.77;4.32;;;;;;;14.13;34.93;101988.59;5021274;27;97470;-70
2021/06/13 05:40:21;;;;;;;10.00;3.72;;;;;;;14.14;34.94;101993.09;5021834;27;96934;-70
2021/06/13 05:42:51;;;;;;;8.05;4.35;;;;;;;14.17;34.89;101984.22;5020762;27;99219;-69
2021/06/13 05:45:22;;;;;;;9.80;4.10;;;;;;;14.13;34.88;101982.34;5022548;27;98475;-70
2021/06/13 05:47:50;;;;;;;6.80;4.28;;;;;;;14.14;34.90;101978.78;5021890;27;97188;-70
2021/06/13 05:50:22;;;;;;;9.60;4.03;;;;;;;14.21;34.93;101985.22;5004765;28;98064;-69
2021/06/13 05:52:50;;;;;;;10.55;3.90;;;;;;;14.28;34.73;101989.88;5022941;27;97648;-68
2021/06/13 05:55:19;;;;;;;8.73;5.07;;;;;;;14.38;34.41;101998.16;5020448;27;97124;-69
2021/06/13 05:57:48;;;;;;;7.38;4.00;;;;;;;14.39;34.64;102004.44;5022341;27;96900;-69
2021/06/13 06:00:18;;;;;;;6.63;4.35;;;;;;;14.43;34.54;102012.56;5020589;27;97895;-69
2021/06/13 06:02:48;;;;;;;9.00;4.53;;;;;;;14.49;34.19;102012.72;5021009;27;99202;-70
2021/06/13 06:05:17;;;;;;;9.25;4.13;;;;;;;14.52;34.21;102009.19;5021434;27;99530;-69
2021/06/13 06:07:45;;;;;;;10.50;4.30;;;;;;;14.54;34.26;102016.41;5013513;27;97549;-69
2021/06/13 06:10:15;;;;;;;5.60;3.75;;;;;;;14.48;34.54;102010.00;5020846;27;97511;-69
2021/06/13 06:12:43;;;;;;;6.18;3.38;;;;;;;14.43;34.35;102017.00;5020034;27;99675;-69
2021/06/13 06:15:14;;;;;;;6.28;4.10;;;;;;;14.36;34.51;102020.41;5019331;27;98192;-70
2021/06/13 06:17:42;;;;;;;7.43;3.97;;;;;;;14.31;34.77;102027.41;5020104;27;97400;-71
2021/06/13 06:20:14;;;;;;;7.40;3.85;;;;;;;14.29;34.67;102023.78;5020286;27;97433;-69
2021/06/13 06:22:42;;;;;;;7.38;3.75;;;;;;;14.29;34.88;102030.06;5020219;27;98529;-69
2021/06/13 06:25:11;;;;;;;4.63;3.55;;;;;;;14.38;34.51;102024.03;4999613;27;100177;-69
2021/06/13 06:27:39;;;;;;;11.27;4.47;;;;;;;14.31;34.59;102031.00;5020200;27;97292;-71
2021/06/13 06:30:09;;;;;;;8.02;3.95;;;;;;;14.28;34.58;102024.69;5020415;27;97345;-70
2021/06/13 06:32:38;;;;;;;7.93;4.25;;;;;;;14.31;34.59;102032.78;5021405;27;100180;-70
2021/06/13 06:35:07;;;;;;;7.55;4.72;;;;;;;14.33;34.55;102031.03;5019339;27;97966;-70
2021/06/13 06:37:38;;;;;;;9.23;4.13;;;;;;;14.34;34.63;102027.47;5021603;27;97100;-70
2021/06/13 06:40:08;;;;;;;8.50;4.00;;;;;;;14.40;34.66;102027.66;5021687;27;97214;-70
2021/06/13 06:42:37;;;;;;;9.15;3.42;;;;;;;14.44;34.47;102024.19;5017275;27;98060;-70
2021/06/13 06:45:07;;;;;;;10.00;4.43;;;;;;;14.45;34.41;102024.22;5018521;27;100819;-70
2021/06/13 06:47:35;;;;;;;9.15;3.75;;;;;;;14.48;34.51;102026.09;5017645;27;96944;-69
2021/06/13 06:50:06;;;;;;;7.45;4.10;;;;;;;14.52;34.49;102030.63;5014332;27;97348;-68
2021/06/13 06:52:34;;;;;;;5.38;3.75;;;;;;;14.57;34.26;102023.66;5018638;27;97910;-68
2021/06/13 06:55:05;;;;;;;10.70;4.43;;;;;;;14.58;34.32;102036.19;5017753;27;98331;-68
2021/06/13 06:57:33;;;;;;;8.23;3.80;;;;;;;14.64;34.24;102050.66;5001919;28;97831;-69
2021/06/13 07:00:01;;;;;;;10.52;3.65;;;;;;;14.67;34.29;102045.34;5020053;27;97115;-70
2021/06/13 07:02:30;;;;;;;9.27;3.83;;;;;;;14.65;34.17;102046.16;5017507;27;99677;-69
2021/06/13 07:04:58;;;;;;;10.70;4.35;;;;;;;14.64;34.46;102052.41;5017997;27;99736;-70
2021/06/13 07:07:26;;;;;;;11.95;4.63;;;;;;;14.62;34.34;102054.16;5019456;27;97262;-70
2021/06/13 07:09:55;;;;;;;8.18;3.40;;;;;;;14.53;34.40;102056.56;5018784;27;97640;-70
2021/06/13 07:12:25;;;;;;;8.20;4.40;;;;;;;14.51;34.51;102053.84;5019447;27;100720;-68
2021/06/13 07:14:54;;;;;;;5.47;3.05;;;;;;;14.54;34.43;102059.28;5021907;27;99083;-69
2021/06/13 07:17:21;;;;;;;4.68;3.70;;;;;;;14.63;34.13;102074.69;5020579;27;97886;-71
2021/06/13 07:19:49;;;;;;;7.30;4.03;;;;;;;14.63;34.44;102070.25;5018367;27;97685;-70
2021/06/13 07:22:17;;;;;;;9.23;3.83;;;;;;;14.68;34.19;102078.41;5019463;27;99511;-70
2021/06/13 07:24:45;;;;;;;6.57;3.35;;;;;;;14.71;34.11;102071.38;5020016;27;97192;-70
2021/06/13 07:27:14;;;;;;;10.05;3.72;;;;;;;14.73;34.22;102079.44;5016797;27;97419;-70
2021/06/13 07:29:43;;;;;;;5.50;3.25;;;;;;;14.74;34.14;102073.19;5019942;27;97489;-71
2021/06/13 07:32:11;;;;;;;5.85;3.63;;;;;;;14.75;34.08;102075.94;5017928;27;100325;-70
2021/06/13 07:34:38;;;;;;;14.18;6.00;;;;;;;14.80;34.03;102068.00;5020594;27;100150;-69
2021/06/13 07:37:07;;;;;;;8.32;3.28;;;;;;;14.78;34.08;102069.72;5016600;27;97679;-69
2021/06/13 07:39:36;;;;;;;6.03;3.58;;;;;;;14.81;34.14;102076.06;5017998;27;97594;-67
2021/06/13 07:42:05;;;;;;;8.07;3.97;;;;;;;14.77;34.21;102068.81;5019515;27;97355;-66
2021/06/13 07:44:33;;;;;;;4.63;3.22;;;;;;;14.79;33.96;102063.50;5015162;27;98574;-67
2021/06/13 07:47:03;;;;;;;8.77;3.53;;;;;;;14.79;34.14;102063.50;5009681;27;97991;-70
2021/06/13 07:49:31;;;;;;;6.15;3.40;;;;;;;14.82;34.13;102071.63;5006892;27;97824;-69
2021/06/13 07:52:00;;;;;;;9.02;3.63;;;;;;;14.80;33.86;102076.03;5012205;27;98374;-75
2021/06/13 07:54:28;;;;;;;10.25;4.72;;;;;;;14.78;34.30;102075.09;4981399;27;101096;-73
2021/06/13 07:56:56;;;;;;;6.25;3.45;;;;;;;14.74;34.05;102087.50;5004066;27;99140;-71
2021/06/13 07:59:24;;;;;;;6.38;3.15;;;;;;;14.72;34.25;102086.56;5017704;27;98121;-74
2021/06/13 08:01:52;;;;;;;7.13;3.92;;;;;;;14.73;34.02;102079.44;5017998;27;97605;-73
2021/06/13 08:04:22;;;;;;;7.53;3.33;;;;;;;14.75;34.16;102078.63;5013397;27;98143;-74
2021/06/13 08:06:50;;;;;;;5.72;3.40;;;;;;;14.80;34.08;102079.63;5014712;27;97594;-71
2021/06/13 08:09:18;;;;;;;7.47;4.03;;;;;;;14.83;33.73;102078.78;4988201;27;98889;-71
2021/06/13 08:11:46;;;;;;;3.90;3.45;;;;;;;14.82;33.94;102087.69;5002533;27;98468;-72
2021/06/13 08:14:14;;;;;;;5.25;3.35;;;;;;;14.88;33.79;102093.22;5017180;27;98964;-76
2021/06/13 08:16:41;;;;;;;8.63;3.85;;;;;;;14.91;33.90;102088.84;5020871;27;97955;-71
2021/06/13 08:19:09;;;;;;;4.75;3.42;;;;;;;14.96;33.97;102086.25;5020628;27;98191;-72
2021/06/13 08:21:39;;;;;;;10.52;3.88;;;;;;;15.02;33.81;102091.75;5020034;27;99727;-72
2021/06/13 08:24:09;;;;;;;16.65;3.78;;;;;;;15.03;33.72;102088.19;5018585;27;99080;-73
2021/06/13 08:26:37;;;;;;;7.15;3.55;;;;;;;15.08;33.44;102075.81;5018141;27;96894;-69
2021/06/13 08:29:05;;;;;;;8.52;3.17;;;;;;;15.09;33.46;102083.91;5017484;27;97783;-69
2021/06/13 08:31:33;;;;;;;7.93;3.10;;;;;;;15.09;33.71;102093.72;5017831;27;97883;-69
2021/06/13 08:34:02;;;;;;;4.07;3.17;;;;;;;15.20;33.36;102092.19;5017239;27;97733;-69
2021/06/13 08:36:30;;;;;;;9.13;4.43;;;;;;;15.22;33.35;102089.53;4999667;27;97501;-70
2021/06/13 08:38:59;;;;;;;5.70;3.58;;;;;;;15.28;33.20;102104.00;5008404;27;96879;-68
2021/06/13 08:41:27;;;;;;;10.73;5.18;;;;;;;15.27;33.11;102102.19;5015663;27;99436;-70
2021/06/13 08:43:55;;;;;;;10.73;4.60;;;;;;;15.32;33.24;102100.53;5015265;27;98620;-69
2021/06/13 08:46:23;;;;;;;5.97;3.38;;;;;;;15.36;33.17;102107.78;5014928;27;97847;-69
2021/06/13 08:48:52;;;;;;;8.32;5.13;;;;;;;15.40;33.03;102107.00;5014623;27;111862;-70
2021/06/13 08:51:20;;;;;;;7.43;3.70;;;;;;;15.46;33.16;102101.78;5017836;27;99938;-70
2021/06/13 08:53:50;;;;;;;4.05;3.28;;;;;;;15.53;33.13;102101.03;5019560;27;98661;-71
2021/06/13 08:56:20;;;;;;;5.18;3.80;;;;;;;15.56;32.85;102109.13;5017750;27;97942;-70
2021/06/13 08:58:51;;;;;;;5.75;3.30;;;;;;;15.63;32.66;102116.44;5035094;27;97274;-70
2021/06/13 09:01:19;;;;;;;16.60;7.40;;;;;;;15.68;32.77;102114.78;5017738;27;97864;-70
2021/06/13 09:03:47;;;;;;;17.95;10.13;;;;;;;15.73;32.46;102115.78;5001300;27;98751;-70
2021/06/13 09:06:15;;;;;;;6.60;4.30;;;;;;;15.71;32.74;102121.97;5013699;27;96935;-71
2021/06/13 09:08:48;;;;;;;6.75;4.03;;;;;;;15.75;32.85;102115.81;5017107;27;96860;-71
2021/06/13 09:11:37;;;;;;;7.97;4.35;;;;;;;15.73;32.72;102118.47;5012400;27;97066;-70
2021/06/13 09:14:11;;;;;;;7.78;3.78;;;;;;;15.70;32.78;102122.84;5022094;27;97508;-70
2021/06/13 09:16:40;;;;;;;7.63;3.15;;;;;;;15.59;32.71;102128.00;5020908;27;97525;-71
2021/06/13 09:19:08;;;;;;;9.00;3.78;;;;;;;15.55;32.88;102115.38;5022126;27;97878;-71
2021/06/13 09:21:38;;;;;;;5.93;3.50;;;;;;;15.58;32.97;102112.75;5020883;27;99217;-70
2021/06/13 09:24:18;;;;;;;18.77;10.98;;;;;;;15.63;32.74;102121.81;5021077;27;98495;-70
2021/06/13 09:26:47;;;;;;;9.75;5.57;;;;;;;15.65;32.56;102114.69;5003892;27;98136;-70
2021/06/13 09:29:15;;;;;;;7.05;3.30;;;;;;;15.67;32.61;102112.03;5020644;27;97512;-71
2021/06/13 09:31:43;;;;;;;6.20;3.13;;;;;;;15.67;32.63;102118.31;5021392;27;99421;-70
2021/06/13 09:34:15;;;;;;;7.07;3.97;;;;;;;15.72;32.59;102116.63;5021271;27;97919;-70
2021/06/13 09:36:43;;;;;;;9.50;4.78;;;;;;;15.80;32.63;102128.44;5022019;27;97282;-69
2021/06/13 09:39:14;;;;;;;8.23;3.83;;;;;;;15.79;32.19;102126.66;5024123;27;96849;-69
2021/06/13 09:41:43;;;;;;;5.70;3.78;;;;;;;15.85;32.62;102134.81;5020453;27;99470;-70
2021/06/13 09:44:16;;;;;;;4.75;3.50;;;;;;;15.83;32.57;102120.44;5020796;27;100383;-70
2021/06/13 09:46:46;;;;;;;7.70;3.50;;;;;;;15.83;32.43;102124.94;5004564;28;97309;-73
2021/06/13 09:49:15;;;;;;;6.57;3.72;;;;;;;15.81;32.44;102132.94;5021292;27;97911;-71
2021/06/13 09:51:44;;;;;;;7.68;3.42;;;;;;;15.75;32.40;102137.28;5018896;27;97810;-68
2021/06/13 09:54:19;;;;;;;13.52;6.57;;;;;;;15.79;32.47;102134.69;5017614;27;99291;-68
2021/06/13 09:56:47;;;;;;;10.15;4.63;;;;;;;15.77;32.68;102136.44;5023826;27;97298;-71
2021/06/13 09:59:17;;;;;;;9.98;3.88;;;;;;;15.77;32.52;102140.91;5002348;27;97111;-71
2021/06/13 10:01:47;;;;;;;5.53;3.60;;;;;;;15.81;32.58;102146.34;5018656;27;98314;-71
2021/06/13 10:04:28;;;;;;;6.22;3.05;;;;;;;15.84;32.36;102146.44;5021266;27;99657;-68
2021/06/13 10:06:58;;;;;;;7.78;3.72;;;;;;;15.93;32.02;102146.63;5004667;27;97839;-70
2021/06/13 10:09:35;;;;;;;7.50;3.97;;;;;;;15.95;32.48;102143.97;4999189;27;97142;-71
2021/06/13 10:12:06;;;;;;;5.45;3.40;;;;;;;16.00;31.91;102139.59;5022115;27;98219;-71
2021/06/13 10:14:39;;;;;;;7.55;3.85;;;;;;;16.06;32.20;102155.88;5019061;27;99829;-70
2021/06/13 10:17:07;;;;;;;8.95;3.78;;;;;;;16.06;32.12;102158.56;5019714;27;97153;-70
2021/06/13 10:19:38;;;;;;;5.85;3.38;;;;;;;16.08;31.97;102159.50;5003018;28;97548;-70
2021/06/13 10:22:06;;;;;;;8.23;3.60;;;;;;;16.16;31.90;102151.59;5020846;27;100717;-70
2021/06/13 10:24:35;;;;;;;5.30;3.70;;;;;;;16.20;31.95;102148.06;5020881;27;97018;-70
2021/06/13 10:27:06;;;;;;;3.42;3.10;;;;;;;16.28;31.62;102147.38;5020258;27;97457;-71
2021/06/13 10:29:36;;;;;;;7.85;4.10;;;;;;;16.33;31.60;102142.06;5021122;27;97316;-69
2021/06/13 10:32:07;;;;;;;4.15;3.30;;;;;;;16.38;31.86;102143.97;5022416;27;97875;-68
2021/06/13 10:34:35;;;;;;;6.50;4.53;;;;;;;16.51;31.49;102145.09;5017886;27;99360;-70
2021/06/13 10:37:06;;;;;;;6.57;4.10;;;;;;;16.55;31.43;102149.66;4991138;27;97877;-70
2021/06/13 10:39:35;;;;;;;9.07;3.83;;;;;;;16.48;31.71;102155.81;5006942;27;97313;-69
2021/06/13 10:42:05;;;;;;;8.07;3.50;;;;;;;16.39;31.59;102137.72;5019570;27;98958;-69
2021/06/13 10:44:44;;;;;;;8.35;3.35;;;;;;;16.45;31.50;102139.63;5019760;27;100462;-70
2021/06/13 10:47:15;;;;;;;7.90;3.88;;;;;;;16.50;31.54;102149.59;5017472;27;96998;-69
2021/06/13 10:49:46;;;;;;;6.78;3.53;;;;;;;16.53;31.25;102152.31;5020102;27;98210;-69
2021/06/13 10:52:14;;;;;;;5.40;3.85;;;;;;;16.56;31.07;102146.09;5019044;27;102025;-69
2021/06/13 10:54:56;;;;;;;4.70;3.47;;;;;;;16.63;31.07;102153.41;5017559;27;99740;-70
2021/06/13 10:57:37;;;;;;;6.32;3.70;;;;;;;16.74;30.90;102149.16;5019174;27;97867;-70
2021/06/13 11:00:28;;;;;;;7.43;4.30;;;;;;;16.81;30.80;102148.38;5019754;27;98283;-69
2021/06/13 11:02:59;;;;;;;8.85;4.45;;;;;;;16.84;31.14;102134.97;5009246;27;97935;-70
2021/06/13 11:05:38;;;;;;;8.60;3.55;;;;;;;16.93;30.73;102141.41;5020594;27;98788;-70
2021/06/13 11:08:06;;;;;;;8.10;3.92;;;;;;;17.03;30.91;102131.72;5019888;27;97453;-70
2021/06/13 11:10:34;;;;;;;7.70;4.50;;;;;;;17.11;30.65;102123.78;5003282;28;97496;-70
2021/06/13 11:13:09;;;;;;;5.88;4.20;;;;;;;17.26;30.58;102124.91;5020648;27;97329;-69
2021/06/13 11:15:56;;;;;;;7.50;3.78;;;;;;;17.33;30.37;102124.09;5002498;27;97776;-70
2021/06/13 11:18:30;;;;;;;7.88;4.03;;;;;;;17.45;30.33;102128.81;5000575;27;98150;-70
2021/06/13 11:21:08;;;;;;;4.45;3.60;;;;;;;17.46;29.26;102128.81;5019920;27;97512;-70
2021/06/13 11:23:54;;;;;;;6.45;4.07;;;;;;;17.51;29.69;102132.47;5013444;27;98881;-70
2021/06/13 11:26:39;;;;;;;11.25;5.85;;;;;;;17.56;29.65;102138.84;5012339;27;100828;-72
2021/06/13 11:29:14;;;;;;;6.28;3.35;;;;;;;17.57;30.01;102143.34;5016963;27;97166;-70
2021/06/13 11:31:51;;;;;;;11.93;3.67;;;;;;;17.56;29.94;102135.25;5016003;27;98015;-70
2021/06/13 11:34:21;;;;;;;6.20;3.42;;;;;;;17.51;30.23;102154.00;5012699;27;98238;-70
2021/06/13 11:36:51;;;;;;;7.20;3.42;;;;;;;17.48;30.23;102145.91;5017646;27;98290;-70
2021/06/13 11:39:30;;;;;;;5.63;3.70;;;;;;;17.49;30.04;102155.75;5009748;27;98796;-70